sensor_id;sensor_type;location;lat;lon;timestamp;pressure;altitude;pressure_sealevel;temperature;humidity
44453;BME280;30155;52.164;21.236;2023-02-18T00:01:52;99407.34;;;7.74;83.80
44453;BME280;30155;52.164;21.236;2023-02-18T00:06:45;99425.64;;;7.75;83.97
44453;BME280;30155;52.164;21.236;2023-02-18T00:11:38;99420.73;;;7.66;83.64
44453;BME280;30155;52.164;21.236;2023-02-18T00:16:34;99434.10;;;7.56;82.96
44453;BME280;30155;52.164;21.236;2023-02-18T00:21:27;99456.09;;;7.48;82.77
44453;BME280;30155;52.164;21.236;2023-02-18T00:26:20;99465.84;;;7.38;82.33
44453;BME280;30155;52.164;21.236;2023-02-18T00:31:19;99467.79;;;7.26;81.28
44453;BME280;30155;52.164;21.236;2023-02-18T00:36:15;99471.83;;;7.18;81.07
44453;BME280;30155;52.164;21.236;2023-02-18T00:41:08;99475.27;;;7.17;80.12
44453;BME280;30155;52.164;21.236;2023-02-18T00:46:01;99470.41;;;7.15;79.28
44453;BME280;30155;52.164;21.236;2023-02-18T00:50:55;99478.13;;;7.11;78.62
44453;BME280;30155;52.164;21.236;2023-02-18T00:55:48;99473.64;;;7.09;78.08
44453;BME280;30155;52.164;21.236;2023-02-18T01:00:41;99483.83;;;7.11;78.05
44453;BME280;30155;52.164;21.236;2023-02-18T01:05:37;99473.66;;;7.12;77.17
44453;BME280;30155;52.164;21.236;2023-02-18T01:10:30;99490.73;;;7.13;76.71
44453;BME280;30155;52.164;21.236;2023-02-18T01:15:24;99487.45;;;7.12;76.77
44453;BME280;30155;52.164;21.236;2023-02-18T01:20:18;99480.55;;;7.11;75.89
44453;BME280;30155;52.164;21.236;2023-02-18T01:25:12;99484.70;;;7.11;75.36
44453;BME280;30155;52.164;21.236;2023-02-18T01:30:09;99480.73;;;7.12;75.34
44453;BME280;30155;52.164;21.236;2023-02-18T01:35:05;99477.98;;;7.11;74.69
44453;BME280;30155;52.164;21.236;2023-02-18T01:39:58;99479.08;;;7.03;74.07
44453;BME280;30155;52.164;21.236;2023-02-18T01:44:52;99486.92;;;6.96;73.75
44453;BME280;30155;52.164;21.236;2023-02-18T01:49:48;99481.73;;;6.94;74.25
44453;BME280;30155;52.164;21.236;2023-02-18T01:54:46;99471.44;;;6.97;74.11
44453;BME280;30155;52.164;21.236;2023-02-18T01:59:45;99471.11;;;6.99;74.10
44453;BME280;30155;52.164;21.236;2023-02-18T02:04:40;99475.08;;;7.00;73.82
44453;BME280;30155;52.164;21.236;2023-02-18T02:09:33;99474.41;;;7.02;74.07
44453;BME280;30155;52.164;21.236;2023-02-18T02:35:24;99454.67;;;6.94;71.74
44453;BME280;30155;52.164;21.236;2023-02-18T02:40:29;99462.02;;;6.87;72.42
44453;BME280;30155;52.164;21.236;2023-02-18T02:46:35;99466.29;;;6.84;72.27
44453;BME280;30155;52.164;21.236;2023-02-18T02:51:06;99471.42;;;6.82;72.36
44453;BME280;30155;52.164;21.236;2023-02-18T02:56:02;99476.73;;;6.80;72.21
44453;BME280;30155;52.164;21.236;2023-02-18T03:01:26;99481.71;;;6.77;72.06
44453;BME280;30155;52.164;21.236;2023-02-18T03:11:58;99498.51;;;6.72;71.69
44453;BME280;30155;52.164;21.236;2023-02-18T03:22:15;99514.98;;;6.68;71.51
44453;BME280;30155;52.164;21.236;2023-02-18T03:27:17;99510.63;;;6.64;71.69
44453;BME280;30155;52.164;21.236;2023-02-18T03:32:15;99519.70;;;6.61;71.31
44453;BME280;30155;52.164;21.236;2023-02-18T03:37:10;99517.91;;;6.55;71.01
44453;BME280;30155;52.164;21.236;2023-02-18T03:42:04;99523.17;;;6.50;71.41
44453;BME280;30155;52.164;21.236;2023-02-18T03:46:58;99526.21;;;6.46;71.21
44453;BME280;30155;52.164;21.236;2023-02-18T03:51:51;99528.92;;;6.43;71.03
44453;BME280;30155;52.164;21.236;2023-02-18T03:56:44;99532.86;;;6.41;70.85
44453;BME280;30155;52.164;21.236;2023-02-18T04:01:37;99538.89;;;6.41;70.93
44453;BME280;30155;52.164;21.236;2023-02-18T04:06:30;99541.95;;;6.40;70.68
44453;BME280;30155;52.164;21.236;2023-02-18T04:11:23;99547.63;;;6.39;70.84
44453;BME280;30155;52.164;21.236;2023-02-18T04:16:16;99548.63;;;6.37;70.44
44453;BME280;30155;52.164;21.236;2023-02-18T04:21:09;99546.70;;;6.34;70.53
44453;BME280;30155;52.164;21.236;2023-02-18T04:26:02;99548.05;;;6.32;70.50
44453;BME280;30155;52.164;21.236;2023-02-18T04:30:55;99551.80;;;6.30;70.61
44453;BME280;30155;52.164;21.236;2023-02-18T04:35:49;99560.58;;;6.31;70.39
44453;BME280;30155;52.164;21.236;2023-02-18T04:40:42;99553.32;;;6.29;70.11
44453;BME280;30155;52.164;21.236;2023-02-18T04:45:35;99554.80;;;6.24;69.75
44453;BME280;30155;52.164;21.236;2023-02-18T04:50:30;99560.73;;;6.18;69.83
44453;BME280;30155;52.164;21.236;2023-02-18T04:55:22;99566.61;;;6.09;70.02
44453;BME280;30155;52.164;21.236;2023-02-18T05:00:17;99559.70;;;6.07;70.19
44453;BME280;30155;52.164;21.236;2023-02-18T05:05:12;99567.77;;;6.07;69.70
44453;BME280;30155;52.164;21.236;2023-02-18T05:10:06;99567.42;;;6.07;69.67
44453;BME280;30155;52.164;21.236;2023-02-18T05:14:59;99572.26;;;6.07;69.66
44453;BME280;30155;52.164;21.236;2023-02-18T05:19:52;99567.61;;;6.07;69.57
44453;BME280;30155;52.164;21.236;2023-02-18T05:24:45;99573.92;;;6.04;69.21
44453;BME280;30155;52.164;21.236;2023-02-18T05:29:38;99576.46;;;6.02;69.70
44453;BME280;30155;52.164;21.236;2023-02-18T05:34:31;99601.40;;;6.02;69.57
44453;BME280;30155;52.164;21.236;2023-02-18T05:39:24;99605.16;;;6.00;69.55
44453;BME280;30155;52.164;21.236;2023-02-18T05:44:17;99609.46;;;6.00;69.31
44453;BME280;30155;52.164;21.236;2023-02-18T05:49:24;99617.90;;;6.00;69.44
44453;BME280;30155;52.164;21.236;2023-02-18T05:54:17;99623.23;;;6.00;69.50
44453;BME280;30155;52.164;21.236;2023-02-18T05:59:09;99622.38;;;6.01;69.38
44453;BME280;30155;52.164;21.236;2023-02-18T06:04:02;99628.61;;;6.03;69.21
44453;BME280;30155;52.164;21.236;2023-02-18T06:08:55;99633.61;;;6.03;69.14
44453;BME280;30155;52.164;21.236;2023-02-18T06:13:48;99633.10;;;6.04;68.92
44453;BME280;30155;52.164;21.236;2023-02-18T06:18:41;99638.98;;;6.06;68.91
44453;BME280;30155;52.164;21.236;2023-02-18T06:23:34;99640.20;;;6.07;69.14
44453;BME280;30155;52.164;21.236;2023-02-18T06:28:26;99654.20;;;6.10;68.92
44453;BME280;30155;52.164;21.236;2023-02-18T06:33:19;99658.50;;;6.10;68.77
44453;BME280;30155;52.164;21.236;2023-02-18T06:38:13;99666.48;;;6.14;69.15
44453;BME280;30155;52.164;21.236;2023-02-18T06:43:05;99673.87;;;6.14;68.51
44453;BME280;30155;52.164;21.236;2023-02-18T06:48:01;99676.06;;;6.12;68.54
44453;BME280;30155;52.164;21.236;2023-02-18T06:52:54;99672.51;;;6.15;68.59
44453;BME280;30155;52.164;21.236;2023-02-18T06:57:47;99672.62;;;6.21;68.37
44453;BME280;30155;52.164;21.236;2023-02-18T07:02:39;99676.96;;;6.23;68.46
44453;BME280;30155;52.164;21.236;2023-02-18T07:07:32;99681.97;;;6.24;68.18
44453;BME280;30155;52.164;21.236;2023-02-18T07:12:27;99670.99;;;6.27;68.36
44453;BME280;30155;52.164;21.236;2023-02-18T07:17:20;99670.96;;;6.35;68.05
44453;BME280;30155;52.164;21.236;2023-02-18T07:22:13;99682.19;;;6.46;68.04
44453;BME280;30155;52.164;21.236;2023-02-18T07:27:06;99667.19;;;6.56;67.35
44453;BME280;30155;52.164;21.236;2023-02-18T07:31:59;99677.73;;;6.58;67.38
44453;BME280;30155;52.164;21.236;2023-02-18T07:36:52;99676.73;;;6.61;67.39
44453;BME280;30155;52.164;21.236;2023-02-18T07:41:46;99686.42;;;6.74;66.97
44453;BME280;30155;52.164;21.236;2023-02-18T07:46:40;99681.45;;;6.75;66.93
44453;BME280;30155;52.164;21.236;2023-02-18T07:51:33;99683.29;;;6.82;67.00
44453;BME280;30155;52.164;21.236;2023-02-18T07:56:28;99694.09;;;6.90;66.85
44453;BME280;30155;52.164;21.236;2023-02-18T08:01:21;99689.77;;;7.01;66.35
44453;BME280;30155;52.164;21.236;2023-02-18T08:06:20;99690.73;;;7.08;66.80
44453;BME280;30155;52.164;21.236;2023-02-18T08:11:13;99694.73;;;7.22;65.80
44453;BME280;30155;52.164;21.236;2023-02-18T08:16:10;99701.16;;;7.13;65.41
44453;BME280;30155;52.164;21.236;2023-02-18T08:21:03;99700.36;;;7.07;65.76
44453;BME280;30155;52.164;21.236;2023-02-18T08:25:56;99711.91;;;7.07;65.51
44453;BME280;30155;52.164;21.236;2023-02-18T08:30:51;99712.42;;;7.18;65.50
44453;BME280;30155;52.164;21.236;2023-02-18T08:35:46;99712.34;;;7.24;65.59
44453;BME280;30155;52.164;21.236;2023-02-18T08:40:40;99705.66;;;7.28;64.95
44453;BME280;30155;52.164;21.236;2023-02-18T08:45:33;99702.05;;;7.41;65.14
44453;BME280;30155;52.164;21.236;2023-02-18T08:50:28;99700.35;;;7.55;64.82
44453;BME280;30155;52.164;21.236;2023-02-18T08:55:21;99706.81;;;7.49;64.79
44453;BME280;30155;52.164;21.236;2023-02-18T09:00:16;99707.92;;;7.54;64.79
44453;BME280;30155;52.164;21.236;2023-02-18T09:05:09;99706.17;;;7.66;64.70
44453;BME280;30155;52.164;21.236;2023-02-18T09:10:03;99713.55;;;7.92;63.64
44453;BME280;30155;52.164;21.236;2023-02-18T09:14:56;99715.83;;;7.94;63.30
44453;BME280;30155;52.164;21.236;2023-02-18T09:19:49;99722.56;;;8.09;63.06
44453;BME280;30155;52.164;21.236;2023-02-18T09:24:42;99720.38;;;8.15;63.28
44453;BME280;30155;52.164;21.236;2023-02-18T09:29:38;99724.86;;;8.15;63.02
44453;BME280;30155;52.164;21.236;2023-02-18T09:34:31;99734.85;;;8.13;62.45
44453;BME280;30155;52.164;21.236;2023-02-18T09:39:24;99738.54;;;8.03;62.32
44453;BME280;30155;52.164;21.236;2023-02-18T09:44:24;99734.95;;;8.06;62.61
44453;BME280;30155;52.164;21.236;2023-02-18T09:49:21;99730.66;;;8.39;62.30
44453;BME280;30155;52.164;21.236;2023-02-18T09:54:17;99735.54;;;8.60;61.72
44453;BME280;30155;52.164;21.236;2023-02-18T09:59:19;99740.89;;;8.43;60.47
44453;BME280;30155;52.164;21.236;2023-02-18T10:04:26;99742.14;;;8.32;61.35
44453;BME280;30155;52.164;21.236;2023-02-18T10:09:35;99752.48;;;8.45;61.25
44453;BME280;30155;52.164;21.236;2023-02-18T10:14:32;99754.39;;;8.44;61.24
44453;BME280;30155;52.164;21.236;2023-02-18T10:19:36;99755.06;;;8.45;61.32
44453;BME280;30155;52.164;21.236;2023-02-18T10:24:40;99760.16;;;8.23;61.39
44453;BME280;30155;52.164;21.236;2023-02-18T10:29:35;99750.91;;;8.14;61.53
44453;BME280;30155;52.164;21.236;2023-02-18T10:39:44;99750.83;;;8.69;60.36
44453;BME280;30155;52.164;21.236;2023-02-18T10:49:58;99758.75;;;8.88;59.95
44453;BME280;30155;52.164;21.236;2023-02-18T10:54:58;99750.58;;;8.80;59.63
44453;BME280;30155;52.164;21.236;2023-02-18T11:00:03;99748.14;;;8.78;59.39
44453;BME280;30155;52.164;21.236;2023-02-18T11:05:21;99748.30;;;8.58;59.45
44453;BME280;30155;52.164;21.236;2023-02-18T11:10:18;99743.78;;;8.40;59.68
44453;BME280;30155;52.164;21.236;2023-02-18T11:20:23;99740.67;;;8.24;60.08
44453;BME280;30155;52.164;21.236;2023-02-18T11:30:24;99742.98;;;8.30;60.74
44453;BME280;30155;52.164;21.236;2023-02-18T11:35:20;99730.13;;;8.24;60.67
44453;BME280;30155;52.164;21.236;2023-02-18T11:40:40;99724.21;;;8.19;61.16
44453;BME280;30155;52.164;21.236;2023-02-18T11:45:34;99723.24;;;8.25;60.97
44453;BME280;30155;52.164;21.236;2023-02-18T11:50:32;99729.84;;;8.28;60.74
44453;BME280;30155;52.164;21.236;2023-02-18T11:55:27;99715.05;;;8.33;60.51
44453;BME280;30155;52.164;21.236;2023-02-18T12:00:40;99718.42;;;8.58;60.79
44453;BME280;30155;52.164;21.236;2023-02-18T12:05:34;99725.93;;;8.68;59.87
44453;BME280;30155;52.164;21.236;2023-02-18T12:10:42;99718.13;;;8.46;59.91
44453;BME280;30155;52.164;21.236;2023-02-18T12:31:04;99703.13;;;8.48;60.29
44453;BME280;30155;52.164;21.236;2023-02-18T12:56:28;99687.41;;;8.48;59.79
44453;BME280;30155;52.164;21.236;2023-02-18T13:16:51;99677.26;;;8.52;60.35
44453;BME280;30155;52.164;21.236;2023-02-18T13:21:52;99666.27;;;8.60;60.24
44453;BME280;30155;52.164;21.236;2023-02-18T13:26:47;99662.06;;;8.53;60.19
44453;BME280;30155;52.164;21.236;2023-02-18T13:47:09;99664.40;;;7.93;61.17
44453;BME280;30155;52.164;21.236;2023-02-18T13:52:03;99666.52;;;7.81;61.28
44453;BME280;30155;52.164;21.236;2023-02-18T13:57:01;99670.90;;;7.73;61.21
44453;BME280;30155;52.164;21.236;2023-02-18T14:02:07;99666.02;;;7.67;61.47
44453;BME280;30155;52.164;21.236;2023-02-18T14:27:25;99638.64;;;7.44;61.77
44453;BME280;30155;52.164;21.236;2023-02-18T14:32:19;99639.41;;;7.35;62.26
44453;BME280;30155;52.164;21.236;2023-02-18T14:47:23;99609.41;;;7.22;62.77
44453;BME280;30155;52.164;21.236;2023-02-18T15:02:28;99598.45;;;7.14;63.55
44453;BME280;30155;52.164;21.236;2023-02-18T15:07:22;99599.30;;;7.13;63.90
44453;BME280;30155;52.164;21.236;2023-02-18T15:12:20;99594.45;;;7.12;64.36
44453;BME280;30155;52.164;21.236;2023-02-18T15:17:19;99595.29;;;6.96;64.75
44453;BME280;30155;52.164;21.236;2023-02-18T15:22:19;99599.23;;;6.82;65.70
44453;BME280;30155;52.164;21.236;2023-02-18T15:27:27;99617.39;;;6.65;66.59
44453;BME280;30155;52.164;21.236;2023-02-18T15:32:26;99617.30;;;6.36;66.97
44453;BME280;30155;52.164;21.236;2023-02-18T15:37:20;99628.77;;;6.12;67.38
44453;BME280;30155;52.164;21.236;2023-02-18T15:47:18;99624.13;;;5.77;67.67
44453;BME280;30155;52.164;21.236;2023-02-18T15:52:12;99626.08;;;5.61;68.30
44453;BME280;30155;52.164;21.236;2023-02-18T15:57:06;99628.97;;;5.43;68.95
44453;BME280;30155;52.164;21.236;2023-02-18T16:07:14;99627.53;;;5.22;69.97
44453;BME280;30155;52.164;21.236;2023-02-18T16:12:30;99630.61;;;5.14;70.25
44453;BME280;30155;52.164;21.236;2023-02-18T16:17:25;99625.58;;;5.11;70.64
44453;BME280;30155;52.164;21.236;2023-02-18T16:22:33;99623.73;;;5.13;70.91
44453;BME280;30155;52.164;21.236;2023-02-18T16:27:32;99628.25;;;5.16;71.22
44453;BME280;30155;52.164;21.236;2023-02-18T16:32:26;99630.31;;;5.17;71.47
44453;BME280;30155;52.164;21.236;2023-02-18T16:37:19;99632.23;;;5.17;71.72
44453;BME280;30155;52.164;21.236;2023-02-18T16:42:30;99628.97;;;5.18;72.06
44453;BME280;30155;52.164;21.236;2023-02-18T16:47:23;99635.54;;;5.20;72.24
44453;BME280;30155;52.164;21.236;2023-02-18T16:52:16;99635.52;;;5.19;72.32
44453;BME280;30155;52.164;21.236;2023-02-18T16:57:10;99631.98;;;5.14;72.56
44453;BME280;30155;52.164;21.236;2023-02-18T17:02:02;99628.52;;;5.13;72.77
44453;BME280;30155;52.164;21.236;2023-02-18T17:06:55;99629.55;;;5.13;72.88
44453;BME280;30155;52.164;21.236;2023-02-18T17:11:50;99628.07;;;5.16;73.27
44453;BME280;30155;52.164;21.236;2023-02-18T17:16:48;99626.55;;;5.16;73.31
44453;BME280;30155;52.164;21.236;2023-02-18T17:21:42;99632.69;;;5.15;73.35
44453;BME280;30155;52.164;21.236;2023-02-18T17:26:38;99627.13;;;5.12;73.44
44453;BME280;30155;52.164;21.236;2023-02-18T17:31:40;99618.95;;;5.15;73.76
44453;BME280;30155;52.164;21.236;2023-02-18T17:36:35;99621.98;;;5.21;74.03
44453;BME280;30155;52.164;21.236;2023-02-18T17:41:29;99622.92;;;5.24;74.07
44453;BME280;30155;52.164;21.236;2023-02-18T17:46:21;99620.72;;;5.25;74.12
44453;BME280;30155;52.164;21.236;2023-02-18T17:51:26;99617.69;;;5.28;74.26
44453;BME280;30155;52.164;21.236;2023-02-18T17:56:20;99620.45;;;5.29;74.26
44453;BME280;30155;52.164;21.236;2023-02-18T18:01:14;99615.58;;;5.26;74.30
44453;BME280;30155;52.164;21.236;2023-02-18T18:06:16;99617.25;;;5.23;74.54
44453;BME280;30155;52.164;21.236;2023-02-18T18:11:13;99611.13;;;5.26;74.77
44453;BME280;30155;52.164;21.236;2023-02-18T18:16:13;99605.02;;;5.30;74.68
44453;BME280;30155;52.164;21.236;2023-02-18T18:21:16;99589.54;;;5.30;74.83
44453;BME280;30155;52.164;21.236;2023-02-18T18:26:10;99588.80;;;5.27;74.94
44453;BME280;30155;52.164;21.236;2023-02-18T18:31:03;99591.75;;;5.28;74.85
44453;BME280;30155;52.164;21.236;2023-02-18T18:35:58;99593.20;;;5.24;74.86
44453;BME280;30155;52.164;21.236;2023-02-18T18:40:52;99600.52;;;5.12;74.81
44453;BME280;30155;52.164;21.236;2023-02-18T18:45:46;99590.95;;;5.06;74.96
44453;BME280;30155;52.164;21.236;2023-02-18T18:50:40;99588.46;;;5.03;74.96
44453;BME280;30155;52.164;21.236;2023-02-18T18:55:36;99578.69;;;5.03;75.21
44453;BME280;30155;52.164;21.236;2023-02-18T19:00:42;99578.60;;;5.00;75.13
44453;BME280;30155;52.164;21.236;2023-02-18T19:05:37;99574.80;;;4.90;75.11
44453;BME280;30155;52.164;21.236;2023-02-18T19:10:33;99584.72;;;4.88;75.45
44453;BME280;30155;52.164;21.236;2023-02-18T19:15:26;99594.08;;;4.85;75.31
44453;BME280;30155;52.164;21.236;2023-02-18T19:20:24;99615.07;;;4.79;75.40
44453;BME280;30155;52.164;21.236;2023-02-18T19:25:18;99636.47;;;4.76;75.61
44453;BME280;30155;52.164;21.236;2023-02-18T19:30:32;99648.23;;;4.72;75.65
44453;BME280;30155;52.164;21.236;2023-02-18T19:35:26;99639.66;;;4.66;75.84
44453;BME280;30155;52.164;21.236;2023-02-18T19:40:22;99654.11;;;4.67;76.12
44453;BME280;30155;52.164;21.236;2023-02-18T19:45:19;99661.13;;;4.66;75.99
44453;BME280;30155;52.164;21.236;2023-02-18T19:50:15;99649.33;;;4.61;76.20
44453;BME280;30155;52.164;21.236;2023-02-18T19:55:10;99662.58;;;4.54;76.06
44453;BME280;30155;52.164;21.236;2023-02-18T20:00:05;99674.52;;;4.52;76.03
44453;BME280;30155;52.164;21.236;2023-02-18T20:05:07;99694.39;;;4.51;76.09
44453;BME280;30155;52.164;21.236;2023-02-18T20:10:00;99705.58;;;4.52;76.40
44453;BME280;30155;52.164;21.236;2023-02-18T20:14:53;99713.20;;;4.55;76.42
44453;BME280;30155;52.164;21.236;2023-02-18T20:19:46;99713.95;;;4.57;76.46
44453;BME280;30155;52.164;21.236;2023-02-18T20:24:39;99716.77;;;4.53;76.43
44453;BME280;30155;52.164;21.236;2023-02-18T20:29:32;99721.38;;;4.52;76.72
44453;BME280;30155;52.164;21.236;2023-02-18T20:34:27;99722.27;;;4.53;76.69
44453;BME280;30155;52.164;21.236;2023-02-18T20:39:19;99728.73;;;4.58;76.77
44453;BME280;30155;52.164;21.236;2023-02-18T20:44:13;99734.73;;;4.65;76.64
44453;BME280;30155;52.164;21.236;2023-02-18T20:49:11;99750.66;;;4.64;76.81
44453;BME280;30155;52.164;21.236;2023-02-18T20:54:06;99755.79;;;4.63;76.51
44453;BME280;30155;52.164;21.236;2023-02-18T20:59:00;99751.98;;;4.61;76.51
44453;BME280;30155;52.164;21.236;2023-02-18T21:03:56;99756.23;;;4.59;76.43
44453;BME280;30155;52.164;21.236;2023-02-18T21:08:51;99763.43;;;4.59;76.53
44453;BME280;30155;52.164;21.236;2023-02-18T21:13:46;99771.52;;;4.53;76.41
44453;BME280;30155;52.164;21.236;2023-02-18T21:18:39;99777.74;;;4.55;76.65
44453;BME280;30155;52.164;21.236;2023-02-18T21:23:33;99775.70;;;4.63;76.78
44453;BME280;30155;52.164;21.236;2023-02-18T21:28:26;99773.52;;;4.65;76.68
44453;BME280;30155;52.164;21.236;2023-02-18T21:33:19;99780.34;;;4.63;76.45
44453;BME280;30155;52.164;21.236;2023-02-18T21:38:12;99787.77;;;4.64;76.56
44453;BME280;30155;52.164;21.236;2023-02-18T21:43:05;99800.20;;;4.60;76.26
44453;BME280;30155;52.164;21.236;2023-02-18T21:47:58;99814.74;;;4.59;76.33
44453;BME280;30155;52.164;21.236;2023-02-18T21:53:11;99818.27;;;4.63;76.16
44453;BME280;30155;52.164;21.236;2023-02-18T21:58:03;99822.75;;;4.56;75.81
44453;BME280;30155;52.164;21.236;2023-02-18T22:02:56;99821.76;;;4.39;75.32
44453;BME280;30155;52.164;21.236;2023-02-18T22:07:50;99831.45;;;4.24;75.37
44453;BME280;30155;52.164;21.236;2023-02-18T22:12:45;99847.52;;;4.10;75.42
44453;BME280;30155;52.164;21.236;2023-02-18T22:17:38;99868.83;;;3.99;75.37
44453;BME280;30155;52.164;21.236;2023-02-18T22:22:31;99878.04;;;3.92;75.43
44453;BME280;30155;52.164;21.236;2023-02-18T22:27:24;99876.33;;;3.87;75.40
44453;BME280;30155;52.164;21.236;2023-02-18T22:32:18;99893.33;;;3.87;75.63
44453;BME280;30155;52.164;21.236;2023-02-18T22:37:11;99899.86;;;3.93;75.76
44453;BME280;30155;52.164;21.236;2023-02-18T22:42:04;99896.73;;;3.98;75.75
44453;BME280;30155;52.164;21.236;2023-02-18T22:46:57;99905.82;;;4.03;75.60
44453;BME280;30155;52.164;21.236;2023-02-18T22:51:52;99904.26;;;4.08;75.72
44453;BME280;30155;52.164;21.236;2023-02-18T22:56:46;99910.86;;;4.12;75.64
44453;BME280;30155;52.164;21.236;2023-02-18T23:01:41;99921.05;;;4.14;75.69
44453;BME280;30155;52.164;21.236;2023-02-18T23:06:36;99921.96;;;4.15;75.53
44453;BME280;30155;52.164;21.236;2023-02-18T23:11:29;99929.20;;;4.16;75.42
44453;BME280;30155;52.164;21.236;2023-02-18T23:16:22;99927.23;;;4.13;75.15
44453;BME280;30155;52.164;21.236;2023-02-18T23:21:14;99938.01;;;4.08;74.82
44453;BME280;30155;52.164;21.236;2023-02-18T23:26:12;99946.47;;;4.04;75.01
44453;BME280;30155;52.164;21.236;2023-02-18T23:31:08;99952.77;;;4.02;74.99
44453;BME280;30155;52.164;21.236;2023-02-18T23:36:14;99954.70;;;4.04;75.05
44453;BME280;30155;52.164;21.236;2023-02-18T23:41:09;99958.20;;;4.00;74.98
44453;BME280;30155;52.164;21.236;2023-02-18T23:46:02;99957.16;;;3.95;75.09
44453;BME280;30155;52.164;21.236;2023-02-18T23:50:59;99967.42;;;3.93;75.21
44453;BME280;30155;52.164;21.236;2023-02-18T23:56:25;99965.27;;;3.91;75.21
